Time;durP1;ratioP1;P1;durP2;ratioP2;P2;SDS_P1;SDS_P2;PMS_P1;PMS_P2;Temp;Humidity;BMP_temperature;BMP_pressure;BME280_temperature;BME280_humidity;BME280_pressure;Samples;Min_cycle;Max_cycle;Signal;HPM_P1;HPM_P2
2023/03/19 00:01:15;;;;;;;6.83;5.07;;;8.10;99.90;;;8.95;86.21;97618.03;5235685;28;20192;-63
2023/03/19 00:03:48;;;;;;;6.10;5.50;;;8.00;99.90;;;8.89;87.49;97613.47;5235593;28;20680;-63
2023/03/19 00:06:22;;;;;;;6.53;5.20;;;8.00;99.90;;;8.87;87.49;97620.16;5240874;28;20228;-62
2023/03/19 00:08:55;;;;;;;6.03;5.10;;;7.90;99.90;;;8.85;87.49;97619.19;5239257;28;20192;-62
2023/03/19 00:11:28;;;;;;;5.57;5.07;;;7.90;99.90;;;8.89;87.45;97617.69;5240354;28;20204;-65
2023/03/19 00:14:02;;;;;;;6.30;5.03;;;7.90;99.90;;;8.83;87.58;97618.19;5239924;28;20307;-63
2023/03/19 00:16:36;;;;;;;5.53;5.10;;;7.90;99.90;;;8.80;87.86;97623.13;5241525;28;20637;-62
2023/03/19 00:19:09;;;;;;;6.13;5.53;;;7.90;99.90;;;8.77;87.74;97618.72;5238672;28;20258;-61
2023/03/19 00:21:42;;;;;;;5.80;4.93;;;7.80;99.90;;;8.78;87.39;97624.69;5242460;28;20585;-63
2023/03/19 00:24:16;;;;;;;5.50;5.00;;;7.80;99.90;;;8.67;88.32;97634.25;5244949;28;20320;-62
2023/03/19 00:26:49;;;;;;;5.83;5.20;;;7.70;99.90;;;8.57;88.55;97629.38;5237226;28;20453;-62
2023/03/19 00:29:23;;;;;;;7.30;5.60;;;7.70;99.90;;;8.53;88.62;97635.97;5248409;28;20220;-63
2023/03/19 00:31:57;;;;;;;7.10;5.80;;;7.60;99.90;;;8.51;89.07;97634.97;5241775;28;20250;-62
2023/03/19 00:34:30;;;;;;;5.43;4.90;;;7.60;99.90;;;8.46;89.47;97646.53;5240790;28;20239;-63
2023/03/19 00:37:03;;;;;;;6.07;5.17;;;7.60;99.90;;;8.55;89.29;97631.81;5249705;28;20192;-63
2023/03/19 00:39:37;;;;;;;7.13;6.00;;;7.70;99.90;;;8.58;89.49;97631.13;5240663;28;20745;-62
2023/03/19 00:42:10;;;;;;;5.87;5.03;;;7.70;99.90;;;8.56;89.59;97625.94;5233998;28;20383;-63
2023/03/19 00:44:43;;;;;;;6.23;5.47;;;7.70;99.90;;;8.61;89.87;97627.88;5238443;28;20224;-62
2023/03/19 00:47:18;;;;;;;6.23;5.60;;;7.70;99.90;;;8.63;89.38;97639.94;5247385;28;20220;-61
2023/03/19 00:49:51;;;;;;;5.97;5.23;;;7.70;99.90;;;8.70;89.35;97642.06;5233443;28;20724;-62
2023/03/19 00:52:24;;;;;;;5.43;4.93;;;7.70;99.90;;;8.69;89.34;97647.06;5242311;28;20201;-63
2023/03/19 00:54:57;;;;;;;6.40;5.17;;;7.70;99.90;;;8.67;89.55;97647.00;5236208;28;20281;-62
2023/03/19 00:57:30;;;;;;;6.37;5.87;;;7.70;99.90;;;8.64;89.82;97653.53;5242213;28;20197;-60
2023/03/19 01:00:05;;;;;;;6.30;5.70;;;7.70;99.90;;;8.66;89.86;97650.31;5234332;28;20228;-63
2023/03/19 01:02:39;;;;;;;6.77;5.23;;;7.70;99.90;;;8.64;90.29;97646.81;5241507;28;20576;-63
2023/03/19 01:05:12;;;;;;;5.90;5.20;;;7.70;99.90;;;8.67;90.08;97652.09;5229318;28;20224;-61
2023/03/19 01:07:46;;;;;;;6.37;5.43;;;7.70;99.90;;;8.67;90.03;97656.28;5239124;28;20224;-63
2023/03/19 01:10:19;;;;;;;5.17;4.77;;;7.70;99.90;;;8.70;90.12;97654.81;5241064;28;20219;-62
2023/03/19 01:12:52;;;;;;;5.67;5.13;;;7.80;99.90;;;8.71;90.20;97659.13;5246355;28;20215;-62
2023/03/19 01:15:25;;;;;;;6.00;5.43;;;7.80;99.90;;;8.73;89.94;97651.59;5243761;28;20208;-62
2023/03/19 01:18:00;;;;;;;6.03;5.23;;;7.80;99.90;;;8.76;89.86;97647.53;5252870;28;20704;-62
2023/03/19 01:20:33;;;;;;;5.47;5.00;;;7.80;99.90;;;8.77;90.24;97656.94;5244594;28;20307;-62
2023/03/19 01:23:07;;;;;;;5.60;5.10;;;7.90;99.90;;;8.78;89.54;97658.72;5235993;28;20253;-64
2023/03/19 01:25:40;;;;;;;5.60;5.10;;;7.80;99.90;;;8.79;89.33;97657.03;5236863;28;20239;-62
2023/03/19 01:28:13;;;;;;;5.33;4.83;;;7.80;99.90;;;8.82;89.60;97651.25;5243488;28;20229;-63
2023/03/19 01:30:46;;;;;;;5.47;4.97;;;7.80;99.90;;;8.92;89.48;97654.44;5240517;28;20288;-62
2023/03/19 01:33:21;;;;;;;6.00;4.83;;;7.80;99.90;;;8.98;88.46;97659.00;5241128;28;20228;-62
2023/03/19 01:35:58;;;;;;;5.83;4.97;;;7.80;99.90;;;8.89;89.33;97658.47;5244010;28;20637;-63
2023/03/19 01:38:32;;;;;;;5.63;5.10;;;7.80;99.90;;;8.81;89.95;97652.91;5239880;28;20219;-60
2023/03/19 01:41:06;;;;;;;5.70;5.10;;;7.80;99.90;;;8.77;90.19;97661.16;5230967;28;20287;-62
2023/03/19 01:43:39;;;;;;;6.40;5.07;;;7.80;99.90;;;8.75;90.09;97660.16;5239777;28;20698;-62
2023/03/19 01:46:23;;;;;;;7.50;5.33;;;7.80;99.90;;;8.79;90.43;97659.59;5241982;28;20231;-62
2023/03/19 01:49:00;;;;;;;5.40;4.90;;;7.90;99.90;;;8.76;90.27;97657.72;5240702;28;20208;-63
2023/03/19 01:51:39;;;;;;;6.00;5.40;;;7.90;99.90;;;8.69;90.36;97655.59;5238307;28;20196;-62
2023/03/19 01:54:16;;;;;;;5.30;4.80;;;7.80;99.90;;;8.69;91.00;97664.91;5232310;28;20227;-61
2023/03/19 01:56:53;;;;;;;5.60;4.90;;;7.80;99.90;;;8.74;90.60;97663.53;5238698;28;20196;-61
2023/03/19 01:59:30;;;;;;;5.13;4.30;;;7.80;99.90;;;8.74;90.70;97660.97;5242040;28;20616;-62
2023/03/19 02:02:09;;;;;;;5.50;5.00;;;7.80;99.90;;;8.78;90.90;97670.56;5233975;28;20204;-62
2023/03/19 02:04:47;;;;;;;5.90;5.30;;;7.90;99.90;;;8.79;90.68;97674.88;5232564;28;20315;-62
2023/03/19 02:07:21;;;;;;;6.23;5.73;;;7.90;99.90;;;8.88;90.58;97683.06;5236425;28;20882;-62
2023/03/19 02:09:54;;;;;;;6.23;5.63;;;7.90;99.90;;;8.94;90.03;97680.03;5241202;28;20197;-64
2023/03/19 02:12:28;;;;;;;5.77;5.27;;;8.00;99.90;;;8.98;90.59;97680.28;5240645;28;20689;-62
2023/03/19 02:15:01;;;;;;;5.90;5.30;;;8.00;99.90;;;8.96;90.44;97689.53;5238266;28;20225;-62
2023/03/19 02:17:34;;;;;;;7.43;5.67;;;7.90;99.90;;;8.93;90.41;97684.25;5229684;28;20574;-62
2023/03/19 02:20:18;;;;;;;6.70;5.20;;;8.00;99.90;;;8.87;90.41;97685.50;5232993;28;20683;-61
2023/03/19 02:23:02;;;;;;;5.07;4.67;;;7.90;99.90;;;8.84;90.40;97690.44;5239340;28;20196;-62
2023/03/19 02:25:43;;;;;;;6.10;4.83;;;7.90;99.90;;;8.80;90.81;97694.47;5232354;28;20632;-62
2023/03/19 02:28:21;;;;;;;5.80;5.20;;;7.90;99.90;;;8.77;91.36;97689.19;5228668;28;20240;-63
2023/03/19 02:30:54;;;;;;;6.00;5.40;;;7.90;99.90;;;8.73;92.16;97697.44;5240551;28;20197;-61
2023/03/19 02:33:27;;;;;;;5.67;5.20;;;7.90;99.90;;;8.70;93.03;97692.13;5239904;28;20239;-63
2023/03/19 02:36:03;;;;;;;6.60;5.13;;;7.90;99.90;;;8.71;94.39;97699.88;5232354;28;20203;-60
2023/03/19 02:38:37;;;;;;;5.53;5.00;;;7.90;99.90;;;8.67;94.49;97702.13;5246907;28;20261;-62
2023/03/19 02:41:11;;;;;;;7.43;4.70;;;7.90;99.90;;;8.66;94.41;97700.38;5235101;28;20281;-63
2023/03/19 02:43:45;;;;;;;5.30;4.90;;;7.90;99.90;;;8.59;94.48;97701.69;5240596;28;20225;-63
2023/03/19 02:46:18;;;;;;;7.03;5.97;;;7.80;99.90;;;8.53;95.01;97704.72;5233384;28;20231;-62
2023/03/19 02:48:52;;;;;;;6.40;5.43;;;7.80;99.90;;;8.46;95.16;97702.56;5244753;28;20224;-63
2023/03/19 02:51:26;;;;;;;6.03;5.43;;;7.70;99.90;;;8.43;95.30;97710.03;5233491;28;20300;-61
2023/03/19 02:53:59;;;;;;;5.60;5.03;;;7.70;99.90;;;8.49;95.55;97715.50;5240225;28;20691;-62
2023/03/19 02:56:32;;;;;;;6.93;5.90;;;7.70;99.90;;;8.47;95.70;97718.72;5239319;28;20228;-61
2023/03/19 02:59:08;;;;;;;6.37;5.87;;;7.70;99.90;;;8.55;96.12;97726.06;5235519;28;20198;-61
2023/03/19 03:01:41;;;;;;;6.27;5.77;;;7.70;99.90;;;8.54;96.27;97726.84;5228579;28;20196;-61
2023/03/19 03:04:15;;;;;;;6.43;5.87;;;7.70;99.90;;;8.53;96.27;97727.66;5237290;28;20256;-61
2023/03/19 03:06:48;;;;;;;7.33;6.23;;;7.70;99.90;;;8.51;96.97;97731.75;5231672;28;20350;-63
2023/03/19 03:09:21;;;;;;;7.17;6.57;;;7.70;99.90;;;8.47;96.74;97732.38;5236985;28;20227;-62
2023/03/19 03:11:54;;;;;;;6.30;5.80;;;7.70;99.90;;;8.50;97.91;97730.00;5232782;28;20220;-62
2023/03/19 03:14:29;;;;;;;7.03;6.43;;;7.70;99.90;;;8.54;98.45;97744.69;5227209;28;20228;-62
2023/03/19 03:17:02;;;;;;;7.53;6.83;;;7.80;99.90;;;8.59;98.83;97736.47;5251103;28;20677;-62
2023/03/19 03:19:36;;;;;;;7.00;6.30;;;7.80;99.90;;;8.58;99.46;97738.13;5246936;28;20291;-62
2023/03/19 03:22:09;;;;;;;6.87;6.27;;;7.80;99.90;;;8.65;99.78;97742.81;5241266;28;20278;-62
2023/03/19 03:24:43;;;;;;;6.47;5.67;;;7.90;99.90;;;8.66;100.00;97744.56;5237988;28;20228;-62
2023/03/19 03:27:16;;;;;;;5.30;4.90;;;7.90;99.90;;;8.69;99.39;97756.63;5233183;28;20196;-61
2023/03/19 03:29:50;;;;;;;6.40;5.80;;;7.90;99.90;;;8.64;99.61;97764.00;5232505;28;20227;-63
2023/03/19 03:32:24;;;;;;;5.63;5.13;;;7.80;99.90;;;8.53;99.63;97758.22;5238618;28;20219;-62
2023/03/19 03:34:57;;;;;;;6.63;5.00;;;7.70;99.90;;;8.55;99.91;97759.19;5239344;28;20232;-61
2023/03/19 03:37:30;;;;;;;6.47;5.60;;;7.80;99.90;;;8.52;100.00;97748.78;5242764;28;20205;-62
2023/03/19 03:40:07;;;;;;;6.87;5.80;;;7.80;99.90;;;8.46;100.00;97757.72;5236483;28;20200;-62
2023/03/19 03:42:40;;;;;;;6.40;5.80;;;7.70;99.90;;;8.54;100.00;97759.97;5240417;28;20236;-64
2023/03/19 03:45:15;;;;;;;6.77;5.37;;;7.80;99.90;;;8.61;100.00;97762.91;5237111;28;20303;-61
2023/03/19 03:47:48;;;;;;;7.00;6.40;;;7.90;99.90;;;8.67;100.00;97774.38;5235127;28;20560;-61
2023/03/19 03:50:21;;;;;;;6.73;5.90;;;7.90;99.90;;;8.71;100.00;97785.63;5236278;28;20296;-63
2023/03/19 03:52:54;;;;;;;6.70;6.10;;;7.90;99.90;;;8.71;100.00;97781.41;5238541;28;20201;-62
2023/03/19 03:55:28;;;;;;;6.70;6.10;;;7.90;99.90;;;8.70;100.00;97783.84;5240638;28;20201;-64
2023/03/19 03:58:01;;;;;;;6.83;6.23;;;7.90;99.90;;;8.69;100.00;97782.09;5244227;28;20200;-64
2023/03/19 04:00:36;;;;;;;6.67;5.87;;;7.90;99.90;;;8.62;100.00;97783.41;5240819;28;20200;-65
2023/03/19 04:03:09;;;;;;;6.90;6.20;;;7.90;99.90;;;8.64;100.00;97783.47;5236164;28;20250;-63
2023/03/19 04:05:43;;;;;;;7.00;6.40;;;7.90;99.90;;;8.62;100.00;97783.41;5237913;28;20209;-63
2023/03/19 04:08:16;;;;;;;6.37;5.77;;;7.90;99.90;;;8.58;100.00;97781.41;5231264;28;20208;-64
2023/03/19 04:10:50;;;;;;;6.60;6.10;;;7.90;99.90;;;8.59;100.00;97789.97;5239801;28;20214;-64
2023/03/19 04:13:23;;;;;;;7.33;6.63;;;7.90;99.90;;;8.58;100.00;97783.97;5239084;28;20244;-64
2023/03/19 04:15:57;;;;;;;6.43;5.80;;;7.90;99.90;;;8.57;100.00;97788.19;5237153;28;20208;-64
2023/03/19 04:18:30;;;;;;;6.43;5.93;;;7.90;99.90;;;8.56;100.00;97788.09;5240342;28;20298;-64
2023/03/19 04:21:04;;;;;;;7.57;6.00;;;7.90;99.90;;;8.55;100.00;97782.09;5247896;28;20215;-64
2023/03/19 04:23:37;;;;;;;6.83;6.17;;;7.90;99.90;;;8.59;100.00;97779.78;5241693;28;20331;-65
2023/03/19 04:26:11;;;;;;;6.50;5.90;;;7.90;99.90;;;8.55;100.00;97777.00;5239087;28;20657;-64
2023/03/19 04:28:44;;;;;;;5.93;5.43;;;7.90;99.90;;;8.53;100.00;97777.72;5240721;28;20221;-64
2023/03/19 04:31:18;;;;;;;6.10;5.60;;;7.80;99.90;;;8.33;100.00;97771.31;5240622;28;20203;-64
2023/03/19 04:33:52;;;;;;;6.83;5.87;;;7.60;99.90;;;8.22;100.00;97772.28;5241161;28;20238;-62
2023/03/19 04:36:25;;;;;;;8.13;6.90;;;7.50;99.90;;;8.01;100.00;97762.50;5244124;28;20223;-64
2023/03/19 04:38:58;;;;;;;6.60;6.00;;;7.40;99.90;;;8.01;100.00;97759.94;5243829;28;20232;-63
2023/03/19 04:41:32;;;;;;;8.30;7.37;;;7.40;99.90;;;8.01;100.00;97748.84;5241329;28;20288;-64
2023/03/19 04:44:05;;;;;;;9.30;8.40;;;7.40;99.90;;;8.13;100.00;97758.19;5240316;28;20718;-63
2023/03/19 04:46:39;;;;;;;11.63;10.50;;;7.50;99.90;;;8.09;100.00;97748.56;5239856;28;20682;-62
2023/03/19 04:49:13;;;;;;;10.47;9.57;;;7.50;99.90;;;8.12;100.00;97750.44;5236962;28;20220;-62
2023/03/19 04:51:46;;;;;;;9.97;9.17;;;7.60;99.90;;;8.21;100.00;97750.16;5240283;28;20200;-62
2023/03/19 04:54:19;;;;;;;11.83;10.80;;;7.60;99.90;;;8.23;100.00;97754.56;5237496;28;20224;-61
2023/03/19 04:56:52;;;;;;;10.60;9.50;;;7.70;99.90;;;8.30;100.00;97763.50;5231079;28;20291;-62
2023/03/19 04:59:26;;;;;;;9.83;8.93;;;7.70;99.90;;;8.40;100.00;97763.31;5241256;28;20201;-61
2023/03/19 05:02:00;;;;;;;9.57;8.77;;;7.80;99.90;;;8.43;100.00;97768.59;5238403;28;20228;-63
2023/03/19 05:04:33;;;;;;;10.80;9.70;;;7.80;99.90;;;8.47;100.00;97772.22;5241683;28;20582;-62
2023/03/19 05:07:07;;;;;;;9.23;8.27;;;7.80;99.90;;;8.44;100.00;97774.56;5236317;28;20203;-62
2023/03/19 05:09:42;;;;;;;9.10;8.20;;;7.80;99.90;;;8.44;100.00;97772.94;5234811;28;20270;-64
2023/03/19 05:12:15;;;;;;;10.70;7.87;;;7.80;99.90;;;8.45;100.00;97774.69;5232802;28;20620;-63
2023/03/19 05:14:48;;;;;;;9.23;8.47;;;7.80;99.90;;;8.46;100.00;97768.78;5240664;28;20221;-60
2023/03/19 05:17:22;;;;;;;10.93;9.50;;;7.80;99.90;;;8.51;100.00;97774.19;5243995;28;20227;-64
2023/03/19 05:19:55;;;;;;;9.50;8.60;;;7.90;99.90;;;8.53;100.00;97776.06;5237268;28;20195;-62
2023/03/19 05:22:28;;;;;;;9.93;9.00;;;7.80;99.90;;;8.55;100.00;97784.66;5236364;28;20274;-63
2023/03/19 05:25:01;;;;;;;9.10;8.30;;;7.90;99.90;;;8.59;100.00;97789.97;5236459;28;20227;-64
2023/03/19 05:27:35;;;;;;;9.30;8.40;;;7.90;99.90;;;8.62;100.00;97790.16;5241415;28;20642;-63
2023/03/19 05:30:09;;;;;;;8.53;7.83;;;7.90;99.90;;;8.63;100.00;97792.78;5241365;28;20595;-63
2023/03/19 05:32:45;;;;;;;8.63;7.83;;;7.90;99.90;;;8.67;100.00;97804.03;5243269;28;20212;-64
2023/03/19 05:35:19;;;;;;;9.00;8.00;;;7.90;99.90;;;8.67;100.00;97801.50;5249488;28;20362;-63
2023/03/19 05:37:52;;;;;;;11.27;9.10;;;7.90;99.90;;;8.73;100.00;97804.47;5227248;28;20660;-64
2023/03/19 05:40:25;;;;;;;10.73;8.80;;;8.00;99.90;;;8.74;100.00;97801.13;5232556;28;20681;-63
2023/03/19 05:42:58;;;;;;;11.13;9.73;;;8.00;99.90;;;8.73;100.00;97809.56;5242255;28;20197;-64
2023/03/19 05:45:31;;;;;;;10.27;9.03;;;7.90;99.90;;;8.72;100.00;97813.75;5240596;28;20563;-63
2023/03/19 05:48:07;;;;;;;10.63;9.67;;;7.90;99.90;;;8.73;100.00;97809.56;5238433;28;20204;-64
2023/03/19 05:50:41;;;;;;;11.37;9.73;;;8.00;99.90;;;8.71;100.00;97822.19;5237832;28;20219;-64
2023/03/19 05:53:14;;;;;;;10.27;9.27;;;8.00;99.90;;;8.69;100.00;97822.88;5237565;28;20675;-64
2023/03/19 05:55:47;;;;;;;10.10;9.20;;;8.00;99.90;;;8.67;100.00;97811.69;5235442;28;20197;-64
2023/03/19 05:58:20;;;;;;;10.20;9.30;;;8.00;99.90;;;8.66;100.00;97820.13;5245883;28;20207;-63
2023/03/19 06:00:55;;;;;;;10.87;9.90;;;7.90;99.90;;;8.67;100.00;97826.97;5238234;28;20206;-64
2023/03/19 06:03:29;;;;;;;10.30;9.40;;;7.90;99.90;;;8.67;100.00;97829.53;5236097;28;20613;-63
2023/03/19 06:06:03;;;;;;;10.70;9.70;;;8.00;99.90;;;8.61;100.00;97829.13;5237501;28;20195;-64
2023/03/19 06:08:36;;;;;;;10.90;9.47;;;7.90;99.90;;;8.55;100.00;97835.59;5244258;28;20227;-65
2023/03/19 06:11:09;;;;;;;10.47;9.43;;;7.80;99.90;;;8.52;100.00;97829.44;5243242;28;20231;-64
2023/03/19 06:13:43;;;;;;;11.07;10.00;;;7.80;99.90;;;8.52;100.00;97834.53;5232434;28;20468;-64
2023/03/19 06:16:16;;;;;;;12.47;11.23;;;7.90;99.90;;;8.58;100.00;97840.00;5237817;28;20204;-64
2023/03/19 06:18:50;;;;;;;11.87;10.77;;;7.90;99.90;;;8.71;100.00;97844.25;5237699;28;20296;-60
2023/03/19 06:21:28;;;;;;;11.83;10.63;;;8.00;99.90;;;8.67;100.00;97844.81;5230087;28;20200;-64
2023/03/19 06:24:01;;;;;;;11.17;10.07;;;8.00;99.90;;;8.77;100.00;97842.97;5239620;28;20227;-61
2023/03/19 06:26:34;;;;;;;11.50;10.57;;;8.00;99.90;;;8.68;100.00;97841.50;5235376;28;20292;-64
2023/03/19 06:29:07;;;;;;;11.23;10.20;;;7.90;99.90;;;8.52;100.00;97843.03;5233988;28;20259;-63
2023/03/19 06:31:40;;;;;;;11.17;10.07;;;7.90;99.90;;;8.59;100.00;97840.91;5236317;28;20644;-63
2023/03/19 06:34:15;;;;;;;12.23;11.03;;;7.90;99.90;;;8.67;100.00;97850.81;5229353;28;20228;-63
2023/03/19 06:36:48;;;;;;;13.27;12.13;;;8.00;99.90;;;8.70;100.00;97848.47;5231490;28;20210;-63
2023/03/19 06:39:21;;;;;;;12.07;10.87;;;8.00;99.90;;;8.76;100.00;97846.31;5230593;28;20600;-63
2023/03/19 06:41:54;;;;;;;11.77;10.73;;;8.10;99.90;;;8.81;100.00;97849.13;5227066;28;20247;-65
2023/03/19 06:44:27;;;;;;;12.60;11.47;;;8.10;99.90;;;8.87;100.00;97848.63;5238204;28;20266;-63
2023/03/19 06:47:01;;;;;;;12.30;11.17;;;8.10;99.90;;;8.88;100.00;97842.78;5234342;28;20204;-64
2023/03/19 06:49:35;;;;;;;10.43;9.57;;;8.10;99.90;;;8.91;100.00;97842.97;5235792;28;20208;-64
2023/03/19 06:52:08;;;;;;;11.93;10.80;;;8.10;99.90;;;8.86;100.00;97847.75;5233415;28;20206;-63
2023/03/19 06:54:41;;;;;;;11.53;10.33;;;8.10;99.90;;;8.89;100.00;97845.41;5232170;28;20216;-63
2023/03/19 06:57:14;;;;;;;12.43;11.43;;;8.20;99.90;;;8.85;100.00;97851.09;5239102;28;20204;-63
2023/03/19 06:59:47;;;;;;;11.67;10.63;;;8.10;99.90;;;8.87;100.00;97847.00;5237987;28;20684;-62
2023/03/19 07:02:21;;;;;;;14.27;12.60;;;8.20;99.90;;;8.80;100.00;97853.34;5238112;28;20196;-63
2023/03/19 07:04:55;;;;;;;13.03;11.83;;;8.10;99.90;;;8.88;100.00;97851.28;5243996;28;20653;-63
2023/03/19 07:07:28;;;;;;;12.13;10.93;;;8.20;99.90;;;8.97;100.00;97851.88;5238750;28;20199;-63
2023/03/19 07:10:01;;;;;;;11.13;10.03;;;8.30;99.90;;;9.07;100.00;97857.53;5244217;28;20224;-63
2023/03/19 07:12:35;;;;;;;11.37;10.37;;;8.40;99.90;;;9.13;100.00;97863.00;5239085;28;20295;-62
2023/03/19 07:15:08;;;;;;;11.00;10.00;;;8.40;99.90;;;9.19;100.00;97859.19;5234284;28;20254;-64
2023/03/19 07:17:43;;;;;;;12.50;11.30;;;8.50;99.90;;;9.32;100.00;97868.47;5238531;28;20598;-64
2023/03/19 07:20:18;;;;;;;12.17;11.07;;;8.60;99.90;;;9.42;100.00;97863.16;5244953;28;20283;-64
2023/03/19 07:22:51;;;;;;;13.07;11.77;;;8.70;99.90;;;9.48;100.00;97877.97;5232187;28;20219;-64
2023/03/19 07:25:24;;;;;;;11.67;10.57;;;8.60;99.90;;;9.45;100.00;97873.56;5236896;28;20208;-63
2023/03/19 07:27:57;;;;;;;11.97;10.70;;;8.60;99.90;;;9.44;100.00;97871.81;5238509;28;20234;-63
2023/03/19 07:30:31;;;;;;;14.03;12.67;;;8.70;99.90;;;9.49;100.00;97872.06;5243621;28;20668;-61
2023/03/19 07:33:06;;;;;;;14.97;13.47;;;8.70;99.90;;;9.60;100.00;97872.72;5231655;28;20216;-64
2023/03/19 07:35:40;;;;;;;14.23;12.93;;;8.80;99.90;;;9.56;100.00;97878.44;5233962;28;20882;-62
2023/03/19 07:38:14;;;;;;;12.73;11.50;;;8.80;99.90;;;9.60;100.00;97875.28;5228635;28;20200;-63
2023/03/19 07:40:47;;;;;;;12.57;11.40;;;8.80;99.90;;;9.61;100.00;97879.59;5237766;28;20202;-62
2023/03/19 07:43:34;;;;;;;12.47;11.17;;;8.80;99.90;;;9.70;100.00;97887.81;5233297;28;20228;-64
2023/03/19 07:46:07;;;;;;;11.77;10.77;;;8.90;99.90;;;9.65;100.00;97879.88;5239448;28;20208;-63
2023/03/19 07:48:41;;;;;;;11.80;10.80;;;8.90;99.90;;;9.67;100.00;97885.06;5241585;28;20208;-63
2023/03/19 07:51:15;;;;;;;11.83;10.83;;;8.90;99.90;;;9.78;100.00;97881.47;5230308;28;20213;-62
2023/03/19 07:53:48;;;;;;;13.10;11.97;;;9.00;99.90;;;9.84;100.00;97883.53;5230076;28;20264;-63
2023/03/19 07:56:22;;;;;;;12.23;11.23;;;9.10;99.90;;;10.03;100.00;97876.19;5233356;28;20200;-65
2023/03/19 07:58:55;;;;;;;13.53;12.33;;;9.20;99.90;;;10.11;100.00;97874.09;5230453;28;20254;-64
2023/03/19 08:01:28;;;;;;;13.13;11.93;;;9.30;99.90;;;10.19;100.00;97872.88;5236183;28;20207;-62
2023/03/19 08:04:01;;;;;;;12.50;11.40;;;9.40;99.90;;;10.23;100.00;97868.81;5229691;28;20711;-64
2023/03/19 08:06:37;;;;;;;13.13;11.93;;;9.50;99.90;;;10.19;100.00;97867.75;5235990;28;20208;-63
2023/03/19 08:09:10;;;;;;;13.43;12.20;;;9.50;99.90;;;10.15;100.00;97865.81;5232948;28;20205;-64
2023/03/19 08:11:43;;;;;;;12.27;11.20;;;9.50;99.90;;;10.27;100.00;97866.56;5240225;28;20224;-64
2023/03/19 08:14:21;;;;;;;13.33;12.20;;;9.70;99.90;;;10.49;100.00;97866.13;5238576;28;20225;-65
2023/03/19 08:16:54;;;;;;;12.20;11.00;;;9.80;99.90;;;10.70;100.00;97863.91;5235964;28;20254;-64
2023/03/19 08:19:27;;;;;;;11.25;10.35;;;10.00;99.90;;;10.89;100.00;97870.06;5242604;28;20323;-64
2023/03/19 08:22:02;;;;;;;11.48;10.52;;;10.10;99.90;;;11.00;100.00;97876.66;5230961;28;20279;-64
2023/03/19 08:24:35;;;;;;;10.73;9.77;;;10.30;99.90;;;11.11;100.00;97873.00;5240779;28;20230;-62
2023/03/19 08:27:08;;;;;;;8.85;8.13;;;10.30;99.90;;;10.87;100.00;97866.53;5228893;28;20246;-61
2023/03/19 08:29:42;;;;;;;9.93;9.02;;;10.20;99.90;;;10.99;100.00;97868.09;5230011;28;20413;-62
2023/03/19 08:32:15;;;;;;;10.15;9.25;;;10.40;99.90;;;11.22;100.00;97871.91;5223808;28;20232;-63
2023/03/19 08:34:48;;;;;;;9.60;8.70;;;10.50;99.90;;;11.31;100.00;97873.22;5232138;28;20274;-62
2023/03/19 08:37:23;;;;;;;9.60;8.65;;;10.50;99.90;;;11.32;100.00;97873.28;5258776;28;20209;-62
2023/03/19 08:39:56;;;;;;;9.32;8.43;;;10.50;99.90;;;11.34;100.00;97870.81;5231475;28;20280;-62
2023/03/19 08:42:29;;;;;;;9.60;8.80;;;10.60;99.90;;;11.40;100.00;97866.91;5232668;28;20212;-63
2023/03/19 08:45:02;;;;;;;8.40;7.60;;;10.70;99.90;;;11.50;100.00;97869.19;5238865;28;20221;-62
2023/03/19 08:47:35;;;;;;;8.48;7.65;;;10.80;99.90;;;11.60;100.00;97867.97;5238981;28;20664;-64
2023/03/19 08:50:11;;;;;;;6.93;6.22;;;10.90;99.90;;;11.72;100.00;97873.72;5241061;28;20232;-62
2023/03/19 08:52:45;;;;;;;6.65;6.15;;;11.00;99.90;;;11.77;100.00;97868.00;5247400;28;20706;-63
2023/03/19 08:55:18;;;;;;;6.50;6.00;;;11.00;99.90;;;11.81;100.00;97867.34;5251088;28;20232;-62
2023/03/19 08:57:51;;;;;;;6.53;6.03;;;11.00;99.90;;;11.84;100.00;97873.50;5234065;28;20209;-64
2023/03/19 09:00:25;;;;;;;7.15;6.55;;;11.10;99.90;;;11.98;100.00;97874.25;5247461;28;20232;-62
2023/03/19 09:02:58;;;;;;;6.47;5.88;;;11.20;99.90;;;12.16;100.00;97870.09;5250758;28;20205;-63
2023/03/19 09:05:31;;;;;;;6.45;5.82;;;11.30;99.90;;;12.22;100.00;97873.72;5242825;28;20740;-63
2023/03/19 09:08:06;;;;;;;6.30;5.43;;;11.40;99.90;;;12.34;100.00;97879.50;5227315;28;20681;-62
2023/03/19 09:10:39;;;;;;;6.25;5.38;;;11.60;99.90;;;12.47;100.00;97880.97;5246322;28;20200;-63
2023/03/19 09:13:12;;;;;;;7.35;6.68;;;11.60;99.90;;;12.67;100.00;97874.28;5233145;28;20232;-62
2023/03/19 09:15:46;;;;;;;7.72;7.03;;;11.80;99.90;;;12.96;100.00;97878.25;5232527;28;20275;-63
2023/03/19 09:18:22;;;;;;;7.10;6.50;;;12.00;99.90;;;12.76;100.00;97879.84;5263928;28;21051;-63
2023/03/19 09:20:55;;;;;;;6.82;6.22;;;11.90;99.90;;;12.77;100.00;97881.63;5242144;28;20201;-62
2023/03/19 09:23:30;;;;;;;7.30;5.50;;;11.90;99.90;;;12.76;100.00;97887.53;5233049;28;20739;-62
2023/03/19 09:26:03;;;;;;;5.57;5.15;;;12.00;99.90;;;12.87;100.00;97880.38;5225793;28;20295;-63
2023/03/19 09:28:36;;;;;;;5.13;4.72;;;12.10;99.90;;;12.99;100.00;97879.28;5239223;28;20201;-63
2023/03/19 09:31:10;;;;;;;5.10;4.70;;;12.20;99.90;;;13.10;100.00;97881.47;5230866;28;20624;-63
2023/03/19 09:33:43;;;;;;;5.85;4.22;;;12.30;99.90;;;13.20;100.00;97869.16;5243916;28;20224;-63
2023/03/19 09:36:17;;;;;;;4.70;4.30;;;12.40;99.90;;;13.32;100.00;97874.00;5235451;28;20244;-62
2023/03/19 09:38:52;;;;;;;5.13;4.00;;;12.50;99.90;;;13.32;100.00;97876.56;5241881;28;20261;-63
2023/03/19 09:41:35;;;;;;;4.30;3.90;;;12.60;99.90;;;13.51;100.00;97879.19;5243655;28;20282;-63
2023/03/19 09:44:13;;;;;;;4.35;3.92;;;12.70;99.90;;;13.68;100.00;97876.53;5225373;28;20228;-63
2023/03/19 09:46:53;;;;;;;4.93;4.18;;;12.80;99.90;;;13.79;100.00;97876.97;5224626;28;20251;-63
2023/03/19 09:49:31;;;;;;;3.95;3.63;;;13.00;99.90;;;13.76;98.79;97872.56;5228700;28;20547;-64
2023/03/19 09:52:18;;;;;;;5.80;5.20;;;13.00;99.90;;;13.97;99.95;97873.53;5228301;28;20224;-61
2023/03/19 09:54:55;;;;;;;5.03;4.55;;;13.20;99.90;;;14.27;95.83;97857.66;5232451;28;20256;-63
2023/03/19 09:57:28;;;;;;;4.47;4.10;;;13.40;99.90;;;14.39;94.65;97859.88;5236937;28;20197;-65
2023/03/19 10:00:05;;;;;;;4.47;4.00;;;13.60;99.90;;;14.30;94.21;97852.66;5230963;28;20205;-64
2023/03/19 10:02:42;;;;;;;4.75;4.35;;;13.60;99.90;;;14.55;93.25;97857.19;5228621;28;20609;-65
2023/03/19 10:05:24;;;;;;;3.88;3.58;;;13.70;99.90;;;14.67;91.02;97853.34;5234748;28;20247;-64
2023/03/19 10:08:25;;;;;;;3.88;3.47;;;13.70;99.90;;;14.92;87.77;97850.06;5243327;28;20294;-63
2023/03/19 10:11:30;;;;;;;3.80;3.50;;;14.00;99.90;;;14.92;86.86;97847.50;5232988;28;20205;-64
2023/03/19 10:14:22;;;;;;;3.53;3.20;;;14.10;99.90;;;15.08;85.02;97850.75;5247489;28;20223;-63
2023/03/19 10:16:59;;;;;;;3.30;2.95;;;14.30;99.90;;;15.15;82.89;97845.84;5229941;28;20201;-65
2023/03/19 10:19:40;;;;;;;3.00;2.78;;;14.40;99.90;;;15.17;81.09;97841.63;5232534;28;20270;-65
2023/03/19 10:22:19;;;;;;;3.10;2.80;;;14.40;99.90;;;15.19;78.64;97846.00;5224467;28;20748;-65
2023/03/19 10:24:54;;;;;;;3.40;3.10;;;14.40;99.90;;;15.25;75.10;97840.19;5245280;28;20219;-65
2023/03/19 10:27:29;;;;;;;2.75;2.55;;;14.40;99.90;;;15.44;73.53;97844.38;5234447;28;20315;-64
2023/03/19 10:30:02;;;;;;;5.05;3.13;;;14.60;99.90;;;15.44;74.39;97831.47;5228232;28;20206;-65
2023/03/19 10:32:41;;;;;;;2.95;2.72;;;14.60;99.90;;;15.50;73.92;97839.44;5236465;28;20235;-64
2023/03/19 10:35:22;;;;;;;3.13;2.83;;;14.70;99.90;;;15.68;68.69;97834.09;5229960;28;20235;-65
2023/03/19 10:37:55;;;;;;;4.55;3.10;;;14.90;99.90;;;15.66;68.46;97839.19;5239266;28;20227;-64
2023/03/19 10:40:38;;;;;;;3.45;2.90;;;15.10;99.90;;;15.61;63.13;97834.69;5245177;28;20203;-63
2023/03/19 10:43:20;;;;;;;3.40;3.10;;;14.90;99.90;;;15.47;65.10;97831.59;5229845;28;20224;-65
2023/03/19 10:45:53;;;;;;;3.78;2.60;;;14.70;99.90;;;15.45;68.20;97822.91;5248938;28;20200;-65
2023/03/19 10:48:28;;;;;;;3.40;3.03;;;14.70;99.90;;;15.83;62.15;97815.78;5242011;28;20315;-64
2023/03/19 10:51:04;;;;;;;3.22;2.92;;;15.00;99.90;;;15.99;59.89;97818.94;5233218;28;20667;-65
2023/03/19 10:53:40;;;;;;;3.28;2.97;;;15.20;99.90;;;16.13;57.89;97816.81;5226100;28;20238;-66